Time;durP1;ratioP1;P1;durP2;ratioP2;P2;SDS_P1;SDS_P2;PMS_P1;PMS_P2;Temp;Humidity;BMP_temperature;BMP_pressure;BME280_temperature;BME280_humidity;BME280_pressure;Samples;Min_cycle;Max_cycle;Signal;HPM_P1;HPM_P2
2024/01/14 00:02:06;;;;;;;11.27;1.20;;;4.80;99.90;;;;;;5087702;28;20482;-78
2024/01/14 00:04:31;;;;;;;9.40;1.50;;;4.80;99.90;;;;;;5087873;28;20410;-77
2024/01/14 00:06:57;;;;;;;9.87;0.70;;;4.70;99.90;;;;;;5098725;28;20411;-77
2024/01/14 00:09:22;;;;;;;12.98;1.80;;;4.80;99.90;;;;;;5105475;28;20982;-77
2024/01/14 00:11:48;;;;;;;11.23;1.58;;;4.80;99.90;;;;;;5088966;28;20460;-77
2024/01/14 00:14:14;;;;;;;9.47;1.30;;;4.70;99.90;;;;;;5107242;28;20393;-77
2024/01/14 00:16:40;;;;;;;9.17;1.20;;;4.70;99.90;;;;;;5114293;28;20411;-77
2024/01/14 00:19:06;;;;;;;8.43;1.10;;;4.70;99.90;;;;;;5113007;28;20404;-77
2024/01/14 00:21:35;;;;;;;11.48;1.70;;;4.60;99.90;;;;;;5112584;28;20929;-77
2024/01/14 00:24:00;;;;;;;14.20;1.55;;;4.70;99.90;;;;;;5108731;27;20404;-77
2024/01/14 00:26:28;;;;;;;8.77;1.05;;;4.60;99.90;;;;;;5105239;27;20408;-77
2024/01/14 00:28:55;;;;;;;11.75;1.40;;;4.70;99.90;;;;;;5110998;28;20478;-77
2024/01/14 00:31:21;;;;;;;11.02;1.65;;;4.60;99.90;;;;;;5112680;27;20469;-78
2024/01/14 00:33:49;;;;;;;12.68;1.27;;;4.70;99.90;;;;;;5110275;28;20762;-77
2024/01/14 00:36:14;;;;;;;10.43;1.50;;;4.70;99.90;;;;;;5112521;27;20449;-77
2024/01/14 00:38:40;;;;;;;9.68;1.60;;;4.60;99.90;;;;;;5109457;28;20404;-77
2024/01/14 00:41:06;;;;;;;14.25;1.88;;;4.60;99.90;;;;;;5111939;28;21543;-77
2024/01/14 00:43:31;;;;;;;12.73;1.50;;;4.60;99.90;;;;;;5110126;28;20985;-77
2024/01/14 00:45:57;;;;;;;11.65;1.52;;;4.60;99.90;;;;;;5112325;28;20392;-77
2024/01/14 00:48:23;;;;;;;14.77;1.90;;;4.60;99.90;;;;;;5098912;28;20392;-77
2024/01/14 00:50:48;;;;;;;16.43;2.13;;;4.60;99.90;;;;;;5112509;28;21002;-77
2024/01/14 00:53:14;;;;;;;12.85;1.75;;;4.60;99.90;;;;;;5092412;28;20487;-77
2024/01/14 00:55:39;;;;;;;13.77;1.70;;;4.50;99.90;;;;;;5094255;28;20394;-77
2024/01/14 00:58:05;;;;;;;12.90;1.77;;;4.50;99.90;;;;;;5095777;28;20405;-77
2024/01/14 01:00:31;;;;;;;11.45;1.60;;;4.50;99.90;;;;;;5105897;28;20817;-77
2024/01/14 01:02:56;;;;;;;14.03;1.37;;;4.50;99.90;;;;;;5113716;28;20415;-77
2024/01/14 01:05:22;;;;;;;16.47;1.90;;;4.40;99.90;;;;;;5115457;28;20436;-77
2024/01/14 01:07:48;;;;;;;16.23;2.05;;;4.50;99.90;;;;;;5098576;28;20400;-77
2024/01/14 01:10:14;;;;;;;12.23;1.80;;;4.50;99.90;;;;;;5113508;28;20480;-77
2024/01/14 01:12:39;;;;;;;14.27;2.20;;;4.40;99.90;;;;;;5112850;28;20427;-77
2024/01/14 01:15:05;;;;;;;17.13;2.10;;;4.40;99.90;;;;;;5113782;28;20400;-77
2024/01/14 01:17:32;;;;;;;14.30;2.20;;;4.40;99.90;;;;;;5112239;27;20804;-77
2024/01/14 01:19:59;;;;;;;19.70;2.45;;;4.40;99.90;;;;;;5113561;27;20431;-77
2024/01/14 01:22:25;;;;;;;19.75;2.75;;;4.40;99.90;;;;;;5098147;28;20464;-77
2024/01/14 01:24:50;;;;;;;15.83;2.70;;;4.40;99.90;;;;;;5113279;28;20397;-77
2024/01/14 01:27:16;;;;;;;16.37;2.63;;;4.30;99.90;;;;;;5107331;28;20454;-77
2024/01/14 01:29:42;;;;;;;18.13;2.60;;;4.30;99.90;;;;;;5092853;28;20505;-77
2024/01/14 01:32:09;;;;;;;23.35;3.10;;;4.40;99.90;;;;;;5088598;28;20430;-77
2024/01/14 01:34:37;;;;;;;19.70;2.85;;;4.40;99.90;;;;;;5089809;28;20421;-77
2024/01/14 01:37:04;;;;;;;17.60;3.10;;;4.40;99.90;;;;;;5102434;28;20426;-77
2024/01/14 01:39:30;;;;;;;20.70;3.13;;;4.40;99.90;;;;;;5090538;28;20394;-77
2024/01/14 01:41:56;;;;;;;22.17;3.45;;;4.40;99.90;;;;;;5088983;28;20452;-77
2024/01/14 01:44:23;;;;;;;22.45;3.75;;;4.30;99.90;;;;;;5103868;28;20414;-77
2024/01/14 01:46:50;;;;;;;19.75;3.15;;;4.30;99.90;;;;;;5097238;28;20398;-77
2024/01/14 01:49:16;;;;;;;19.23;2.95;;;4.30;99.90;;;;;;5099271;28;20408;-77
2024/01/14 01:51:48;;;;;;;19.38;3.20;;;4.30;99.90;;;;;;5086233;28;20425;-77
2024/01/14 01:54:18;;;;;;;19.30;3.10;;;4.20;99.90;;;;;;5101208;28;20413;-77
2024/01/14 01:56:44;;;;;;;20.70;3.58;;;4.20;99.90;;;;;;5104177;28;20404;-78
2024/01/14 01:59:10;;;;;;;16.43;2.63;;;4.20;99.90;;;;;;5099299;28;20492;-77
2024/01/14 02:01:37;;;;;;;20.67;3.22;;;4.20;99.90;;;;;;5098424;28;20402;-77
2024/01/14 02:04:04;;;;;;;20.40;3.23;;;4.20;99.90;;;;;;5091884;28;20413;-77
2024/01/14 02:06:32;;;;;;;14.50;2.70;;;4.10;99.90;;;;;;5093782;28;20403;-77
2024/01/14 02:08:58;;;;;;;17.60;2.92;;;4.20;99.90;;;;;;5092106;28;21275;-77
2024/01/14 02:11:23;;;;;;;20.20;3.77;;;4.20;99.90;;;;;;5091946;28;20501;-77
2024/01/14 02:13:49;;;;;;;23.40;3.33;;;4.20;99.90;;;;;;5091144;28;20400;-77
2024/01/14 02:16:16;;;;;;;23.15;3.13;;;4.20;99.90;;;;;;5091921;28;20417;-77
2024/01/14 02:18:42;;;;;;;21.92;3.70;;;4.20;99.90;;;;;;5089860;28;20417;-77
2024/01/14 02:21:10;;;;;;;13.55;2.28;;;4.20;99.90;;;;;;5092101;28;20410;-77
2024/01/14 02:23:41;;;;;;;15.07;2.75;;;4.20;99.90;;;;;;5090722;28;20402;-77
2024/01/14 02:26:07;;;;;;;19.63;2.67;;;4.20;99.90;;;;;;5087731;28;20540;-77
2024/01/14 02:28:32;;;;;;;12.13;2.25;;;4.20;99.90;;;;;;5090713;28;20497;-77
2024/01/14 02:30:59;;;;;;;16.77;2.60;;;4.20;99.90;;;;;;5091193;28;20476;-77
2024/01/14 02:33:25;;;;;;;18.60;2.45;;;4.20;99.90;;;;;;5089898;28;20973;-77
2024/01/14 02:35:51;;;;;;;17.02;2.40;;;4.20;99.80;;;;;;5090888;28;20405;-77
2024/01/14 02:38:16;;;;;;;21.85;2.90;;;4.10;99.50;;;;;;5089299;28;20402;-77
2024/01/14 02:40:42;;;;;;;24.60;2.83;;;4.10;99.40;;;;;;5099219;28;20394;-77
2024/01/14 02:43:08;;;;;;;21.63;3.40;;;4.10;99.20;;;;;;5105641;28;20396;-77
2024/01/14 02:45:33;;;;;;;17.65;2.90;;;4.00;99.10;;;;;;5091661;28;20745;-77
2024/01/14 02:47:59;;;;;;;17.97;3.30;;;3.90;98.70;;;;;;5086691;28;20735;-77
2024/01/14 02:50:24;;;;;;;21.30;2.70;;;3.90;98.60;;;;;;5100338;28;21462;-77
2024/01/14 02:52:50;;;;;;;28.48;3.38;;;3.80;98.50;;;;;;5104524;28;20399;-77
2024/01/14 02:55:16;;;;;;;20.73;2.45;;;3.80;98.70;;;;;;5100598;28;20402;-77
2024/01/14 02:57:42;;;;;;;15.23;2.55;;;3.70;98.70;;;;;;5104724;28;20807;-77
2024/01/14 03:00:08;;;;;;;16.23;2.30;;;3.60;99.10;;;;;;5091447;28;20409;-78
2024/01/14 03:02:34;;;;;;;20.17;3.08;;;3.60;99.40;;;;;;5094748;28;20404;-77
2024/01/14 03:04:59;;;;;;;23.23;3.23;;;3.60;99.50;;;;;;5099039;28;20447;-78
2024/01/14 03:07:25;;;;;;;16.92;2.45;;;3.50;99.50;;;;;;5093688;28;20408;-77
2024/01/14 03:09:51;;;;;;;19.00;3.03;;;3.50;99.50;;;;;;5099465;28;20401;-77
2024/01/14 03:12:16;;;;;;;24.07;3.70;;;3.50;99.80;;;;;;5101694;28;20908;-77
2024/01/14 03:14:42;;;;;;;16.43;3.07;;;3.60;99.90;;;;;;5093546;28;20398;-77
2024/01/14 03:17:07;;;;;;;26.60;3.60;;;3.50;99.90;;;;;;5096368;28;20522;-77
2024/01/14 03:19:33;;;;;;;21.30;2.90;;;3.60;99.90;;;;;;5087927;28;20455;-77
2024/01/14 03:22:00;;;;;;;17.17;2.83;;;3.60;99.90;;;;;;5100960;28;20750;-77
2024/01/14 03:24:25;;;;;;;21.08;3.45;;;3.70;99.90;;;;;;5097921;28;20402;-77
2024/01/14 03:26:51;;;;;;;21.43;3.10;;;3.70;99.90;;;;;;5100894;28;20403;-77
2024/01/14 03:29:17;;;;;;;18.13;2.80;;;3.70;99.90;;;;;;5079764;28;20406;-77
2024/01/14 03:31:42;;;;;;;15.68;2.50;;;3.70;99.90;;;;;;5099964;28;20424;-77
2024/01/14 03:34:08;;;;;;;18.97;2.60;;;3.70;99.90;;;;;;5096954;28;20402;-77
2024/01/14 03:36:33;;;;;;;17.80;2.10;;;3.80;99.70;;;;;;5098967;28;20436;-77
2024/01/14 03:38:59;;;;;;;15.60;2.28;;;3.80;99.50;;;;;;5089261;28;20432;-77
2024/01/14 03:41:25;;;;;;;13.80;2.50;;;3.80;98.90;;;;;;5095114;28;20389;-78
2024/01/14 03:43:50;;;;;;;13.65;2.08;;;3.80;99.20;;;;;;5101115;28;20907;-77
2024/01/14 03:46:16;;;;;;;15.53;2.57;;;3.90;98.80;;;;;;5104964;28;20416;-77
2024/01/14 03:48:42;;;;;;;15.43;2.50;;;3.90;98.40;;;;;;5100990;28;20429;-77
2024/01/14 03:51:08;;;;;;;15.65;2.65;;;3.90;98.30;;;;;;5097723;28;20414;-77
2024/01/14 03:53:33;;;;;;;14.73;2.53;;;3.90;97.90;;;;;;5097330;28;20414;-77
2024/01/14 03:55:59;;;;;;;20.77;3.13;;;3.90;97.90;;;;;;5085228;28;20735;-77
2024/01/14 03:58:25;;;;;;;19.97;2.97;;;3.90;97.30;;;;;;5100193;28;20763;-77
2024/01/14 04:00:50;;;;;;;17.93;3.03;;;3.90;97.40;;;;;;5103645;28;20478;-77
2024/01/14 04:03:16;;;;;;;21.30;3.33;;;3.90;97.10;;;;;;5098977;28;20992;-77
2024/01/14 04:05:42;;;;;;;18.88;3.13;;;3.80;97.30;;;;;;5101294;28;20416;-77
2024/01/14 04:08:08;;;;;;;20.67;3.50;;;3.80;97.40;;;;;;5097857;28;20434;-77
2024/01/14 04:10:34;;;;;;;20.75;3.10;;;3.80;97.90;;;;;;5095091;28;20441;-77
2024/01/14 04:12:59;;;;;;;19.38;3.55;;;3.90;98.10;;;;;;5094717;28;20402;-77
2024/01/14 04:15:25;;;;;;;22.33;3.60;;;3.90;98.20;;;;;;5100843;28;20408;-77
2024/01/14 04:17:51;;;;;;;23.65;3.75;;;3.90;98.20;;;;;;5097443;28;20489;-77
2024/01/14 04:20:16;;;;;;;22.15;2.95;;;3.90;98.40;;;;;;5094471;28;20402;-77
2024/01/14 04:22:42;;;;;;;19.37;3.03;;;3.90;98.80;;;;;;5096058;28;20414;-77
2024/01/14 04:25:08;;;;;;;25.02;3.45;;;3.80;98.80;;;;;;5101542;28;20397;-78
2024/01/14 04:27:34;;;;;;;19.33;3.00;;;3.90;98.80;;;;;;5097460;28;20412;-77
2024/01/14 04:30:00;;;;;;;16.73;2.72;;;3.90;99.00;;;;;;5099489;28;20409;-77
2024/01/14 04:32:26;;;;;;;18.85;2.75;;;3.90;98.90;;;;;;5095565;28;20495;-77
2024/01/14 04:34:51;;;;;;;24.30;2.83;;;3.90;98.70;;;;;;5099108;28;20461;-77
2024/01/14 04:37:17;;;;;;;17.90;2.38;;;3.90;98.80;;;;;;5095104;28;20788;-77
2024/01/14 04:39:42;;;;;;;19.57;3.00;;;3.90;98.90;;;;;;5093037;28;20763;-77
2024/01/14 04:42:08;;;;;;;15.50;2.80;;;3.90;98.60;;;;;;5100748;28;20908;-77
2024/01/14 04:44:34;;;;;;;17.27;2.63;;;3.90;98.70;;;;;;5103946;28;20475;-77
2024/01/14 04:47:00;;;;;;;21.13;2.35;;;3.80;98.50;;;;;;5083072;28;20408;-77
2024/01/14 04:49:25;;;;;;;14.43;2.20;;;3.80;98.20;;;;;;5092008;28;20407;-77
2024/01/14 04:51:51;;;;;;;13.70;1.98;;;3.80;98.00;;;;;;5100266;28;20433;-78
2024/01/14 04:54:16;;;;;;;17.27;2.27;;;3.70;98.10;;;;;;5099581;28;20795;-77
2024/01/14 04:56:42;;;;;;;18.35;2.15;;;3.70;98.30;;;;;;5100458;28;20406;-77
2024/01/14 04:59:08;;;;;;;11.82;2.00;;;3.70;98.30;;;;;;5102409;28;21010;-77
2024/01/14 05:01:34;;;;;;;15.55;2.28;;;3.70;98.40;;;;;;5101384;28;20410;-78
2024/01/14 05:04:00;;;;;;;15.87;2.13;;;3.70;98.60;;;;;;5104283;28;20396;-77
2024/01/14 05:06:25;;;;;;;13.85;2.30;;;3.60;98.50;;;;;;5103154;28;20410;-77
2024/01/14 05:08:51;;;;;;;15.87;2.73;;;3.60;98.30;;;;;;5105742;28;20400;-77
2024/01/14 05:11:17;;;;;;;13.55;1.70;;;3.60;98.20;;;;;;5102572;28;20428;-77
2024/01/14 05:13:42;;;;;;;16.17;2.20;;;3.60;98.20;;;;;;5104093;28;20762;-77
2024/01/14 05:16:08;;;;;;;17.97;2.13;;;3.60;98.10;;;;;;5093263;28;20417;-77
2024/01/14 05:18:33;;;;;;;16.58;2.28;;;3.60;98.00;;;;;;5103995;28;20411;-77
2024/01/14 05:20:59;;;;;;;11.33;1.63;;;3.50;98.00;;;;;;5103737;28;20408;-77
2024/01/14 05:23:25;;;;;;;14.77;1.63;;;3.50;98.40;;;;;;5102071;28;20450;-77
2024/01/14 05:25:50;;;;;;;14.43;1.95;;;3.50;98.50;;;;;;5102552;28;20409;-77
2024/01/14 05:28:16;;;;;;;15.97;1.70;;;3.50;99.10;;;;;;5102031;28;20886;-77
2024/01/14 05:30:41;;;;;;;14.80;2.25;;;3.60;98.90;;;;;;5101292;28;20404;-77
2024/01/14 05:33:07;;;;;;;17.00;2.43;;;3.60;98.90;;;;;;5101761;28;20403;-77
2024/01/14 05:35:32;;;;;;;12.70;2.33;;;3.60;99.00;;;;;;5100680;28;20400;-77
2024/01/14 05:37:58;;;;;;;14.77;1.75;;;3.60;99.10;;;;;;5097328;28;20438;-77
2024/01/14 05:40:24;;;;;;;13.23;1.77;;;3.60;99.00;;;;;;5089828;28;20404;-77
2024/01/14 05:42:49;;;;;;;12.52;2.00;;;3.50;98.70;;;;;;5105554;28;20691;-77
2024/01/14 05:45:15;;;;;;;13.88;1.90;;;3.50;98.70;;;;;;5105808;28;20882;-77
2024/01/14 05:47:41;;;;;;;10.27;1.70;;;3.50;99.00;;;;;;5104182;28;20475;-77
2024/01/14 05:50:07;;;;;;;11.77;1.73;;;3.50;99.10;;;;;;5104582;28;20408;-77
2024/01/14 05:52:33;;;;;;;11.50;1.63;;;3.50;99.20;;;;;;5076265;28;20451;-77
2024/01/14 05:54:59;;;;;;;14.20;2.20;;;3.40;99.00;;;;;;5103087;28;20782;-77
2024/01/14 05:57:24;;;;;;;15.90;1.87;;;3.40;98.80;;;;;;5097849;28;20490;-77
2024/01/14 05:59:50;;;;;;;18.38;2.13;;;3.40;98.80;;;;;;5097480;28;20773;-77
2024/01/14 06:02:17;;;;;;;13.43;2.67;;;3.20;98.60;;;;;;5102035;28;20444;-77
2024/01/14 06:04:43;;;;;;;15.63;1.92;;;3.20;98.60;;;;;;5102744;28;20447;-77
2024/01/14 06:07:09;;;;;;;10.70;1.83;;;3.10;98.60;;;;;;5103582;28;20423;-77
2024/01/14 06:09:35;;;;;;;10.27;1.30;;;3.00;98.80;;;;;;5102375;28;20886;-77
2024/01/14 06:12:01;;;;;;;16.02;2.08;;;2.90;98.80;;;;;;5103752;28;20431;-77
2024/01/14 06:14:27;;;;;;;11.10;1.88;;;2.90;98.80;;;;;;5104417;28;20411;-77
2024/01/14 06:16:52;;;;;;;15.47;2.23;;;2.80;99.00;;;;;;5104749;28;20408;-76
2024/01/14 06:19:18;;;;;;;16.77;2.47;;;2.80;99.20;;;;;;5102098;28;20404;-77
2024/01/14 06:21:43;;;;;;;14.90;2.63;;;2.70;99.30;;;;;;5103164;28;20906;-77
2024/01/14 06:24:18;;;;;;;14.97;1.93;;;2.70;99.50;;;;;;5101755;28;20521;-77
2024/01/14 06:26:44;;;;;;;16.25;2.05;;;2.70;99.50;;;;;;5104655;28;20392;-77
2024/01/14 06:29:09;;;;;;;15.98;2.00;;;2.70;99.50;;;;;;5091550;28;20934;-77
2024/01/14 06:31:35;;;;;;;16.13;2.47;;;2.60;99.60;;;;;;5103091;28;20424;-77
2024/01/14 06:34:01;;;;;;;17.13;2.33;;;2.60;99.90;;;;;;5099028;28;20410;-77
2024/01/14 06:36:26;;;;;;;16.48;2.30;;;2.60;99.90;;;;;;5100758;28;20838;-77
2024/01/14 06:38:52;;;;;;;14.15;2.22;;;2.60;99.90;;;;;;5092078;28;20895;-77
2024/01/14 06:41:19;;;;;;;13.73;2.30;;;2.60;99.90;;;;;;5104762;28;20503;-77
2024/01/14 06:43:45;;;;;;;16.33;2.45;;;2.60;99.90;;;;;;5103156;28;20404;-77
2024/01/14 06:46:11;;;;;;;20.50;2.63;;;2.60;99.90;;;;;;5105997;28;20399;-77
2024/01/14 06:48:36;;;;;;;17.57;2.20;;;2.60;99.90;;;;;;5106362;28;20412;-77
2024/01/14 06:51:02;;;;;;;15.57;2.05;;;2.60;99.90;;;;;;5104288;28;20533;-77
2024/01/14 06:53:28;;;;;;;14.50;2.50;;;2.60;99.90;;;;;;5101958;28;20976;-77
2024/01/14 06:55:54;;;;;;;18.13;2.20;;;2.60;99.90;;;;;;5094819;28;20436;-77
2024/01/14 06:58:20;;;;;;;17.83;2.43;;;2.60;99.90;;;;;;5103351;28;20401;-77
2024/01/14 07:00:45;;;;;;;13.60;1.77;;;2.60;99.90;;;;;;5103259;28;20962;-77
2024/01/14 07:03:11;;;;;;;17.13;2.40;;;2.60;99.90;;;;;;5092468;28;20434;-77
2024/01/14 07:05:36;;;;;;;14.33;2.30;;;2.60;99.90;;;;;;5094523;28;20415;-77
2024/01/14 07:08:04;;;;;;;14.67;2.53;;;2.70;99.90;;;;;;5102956;28;20429;-77
2024/01/14 07:10:30;;;;;;;12.10;1.95;;;2.80;99.90;;;;;;5104067;28;20411;-77
2024/01/14 07:12:56;;;;;;;15.02;2.13;;;2.80;99.90;;;;;;5092162;28;20416;-77
2024/01/14 07:15:21;;;;;;;16.77;1.93;;;2.90;99.90;;;;;;5104338;28;20499;-77
2024/01/14 07:17:48;;;;;;;17.00;2.03;;;3.00;99.90;;;;;;5083929;28;20412;-77
2024/01/14 07:20:13;;;;;;;15.27;1.85;;;3.00;99.90;;;;;;5098016;28;20975;-77
2024/01/14 07:22:39;;;;;;;9.47;1.33;;;3.00;99.90;;;;;;5096200;28;20524;-77
2024/01/14 07:25:05;;;;;;;12.87;1.50;;;3.10;99.90;;;;;;5095845;28;20498;-77
2024/01/14 07:27:31;;;;;;;10.90;1.33;;;3.20;99.90;;;;;;5096491;28;20410;-77
2024/01/14 07:29:56;;;;;;;10.50;1.55;;;3.20;99.90;;;;;;5085282;28;20465;-77
2024/01/14 07:32:22;;;;;;;12.60;1.70;;;3.30;99.90;;;;;;5101695;28;20437;-77
2024/01/14 07:34:47;;;;;;;10.07;1.65;;;3.30;99.90;;;;;;5086706;28;20467;-77
2024/01/14 07:37:13;;;;;;;9.32;1.50;;;3.30;99.90;;;;;;5097737;28;20507;-77
2024/01/14 07:39:39;;;;;;;12.97;1.40;;;3.40;99.90;;;;;;5093926;28;20408;-77
2024/01/14 07:42:05;;;;;;;13.10;1.58;;;3.40;99.90;;;;;;5103202;28;20739;-77
2024/01/14 07:44:30;;;;;;;14.40;2.08;;;3.40;99.90;;;;;;5102074;28;20730;-77
2024/01/14 07:46:56;;;;;;;11.93;1.73;;;3.40;99.90;;;;;;5101367;28;20479;-77
2024/01/14 07:49:21;;;;;;;16.47;2.20;;;3.30;99.90;;;;;;5101486;28;20408;-77
2024/01/14 07:51:47;;;;;;;12.68;2.33;;;3.30;99.90;;;;;;5101273;28;20432;-77
2024/01/14 07:54:13;;;;;;;18.07;2.77;;;3.20;99.90;;;;;;5100163;28;20455;-77
2024/01/14 07:56:38;;;;;;;15.93;2.20;;;3.10;99.90;;;;;;5100470;28;20405;-77
2024/01/14 07:59:04;;;;;;;17.48;2.30;;;3.10;99.90;;;;;;5101117;28;20417;-77
2024/01/14 08:01:30;;;;;;;16.33;2.17;;;3.00;99.90;;;;;;5099940;28;20495;-77
2024/01/14 08:03:55;;;;;;;19.37;2.40;;;2.90;99.90;;;;;;5097617;28;20455;-77
2024/01/14 08:06:23;;;;;;;20.00;2.67;;;2.90;99.90;;;;;;5085597;28;21184;-78
2024/01/14 08:08:48;;;;;;;18.05;2.70;;;2.80;99.90;;;;;;5077284;28;20421;-77
2024/01/14 08:11:14;;;;;;;18.97;2.70;;;2.80;99.90;;;;;;5089346;28;20426;-78
2024/01/14 08:13:40;;;;;;;17.57;2.77;;;2.70;99.90;;;;;;5088885;28;21009;-77
2024/01/14 08:16:06;;;;;;;15.65;2.40;;;2.60;99.90;;;;;;5089863;28;20403;-77
2024/01/14 08:18:32;;;;;;;17.52;2.35;;;2.60;99.90;;;;;;5083639;28;20405;-78
2024/01/14 08:20:57;;;;;;;21.52;2.80;;;2.50;99.90;;;;;;5080168;28;20415;-77
2024/01/14 08:23:24;;;;;;;17.90;2.45;;;2.50;99.90;;;;;;5085106;28;20442;-78
2024/01/14 08:25:49;;;;;;;18.10;2.47;;;2.60;99.90;;;;;;5082599;28;20439;-78
2024/01/14 08:28:15;;;;;;;19.53;2.93;;;2.60;99.90;;;;;;5085390;28;20393;-77
2024/01/14 08:30:40;;;;;;;21.47;3.20;;;2.70;99.90;;;;;;5075060;28;20419;-77
2024/01/14 08:33:06;;;;;;;16.42;2.60;;;2.70;99.90;;;;;;5075633;28;20479;-77
2024/01/14 08:35:32;;;;;;;19.67;3.17;;;2.80;99.90;;;;;;5083115;28;20406;-77
2024/01/14 08:37:57;;;;;;;15.90;2.93;;;2.80;99.90;;;;;;5089809;28;20408;-76
2024/01/14 08:40:23;;;;;;;20.95;2.55;;;2.80;99.90;;;;;;5085867;28;20427;-77
2024/01/14 08:42:49;;;;;;;19.23;2.97;;;2.80;99.90;;;;;;5082821;28;20403;-78
2024/01/14 08:45:16;;;;;;;20.67;3.07;;;2.70;99.90;;;;;;5075966;28;20400;-78
2024/01/14 08:47:42;;;;;;;19.02;3.00;;;2.70;99.90;;;;;;5084842;28;20896;-77
2024/01/14 08:50:11;;;;;;;23.55;3.78;;;2.70;99.90;;;;;;5085950;28;20400;-76
2024/01/14 08:52:38;;;;;;;19.83;3.13;;;2.60;99.90;;;;;;5089074;28;21565;-77
2024/01/14 08:55:08;;;;;;;14.00;2.00;;;2.60;99.90;;;;;;5080193;28;20457;-75
2024/01/14 08:57:34;;;;;;;18.25;2.88;;;2.60;99.90;;;;;;5085357;28;20433;-76
2024/01/14 08:59:59;;;;;;;18.27;2.00;;;2.60;99.90;;;;;;5082220;28;20787;-76
2024/01/14 09:02:25;;;;;;;16.43;2.47;;;2.70;99.90;;;;;;5078346;28;20957;-77
2024/01/14 09:04:51;;;;;;;17.70;2.40;;;2.70;99.90;;;;;;5090406;28;20406;-77
2024/01/14 09:07:17;;;;;;;16.88;2.45;;;2.80;99.90;;;;;;5088085;28;20454;-77
2024/01/14 09:09:43;;;;;;;17.55;2.58;;;2.80;99.90;;;;;;5083996;28;20413;-77
2024/01/14 09:12:08;;;;;;;15.93;2.47;;;2.80;99.90;;;;;;5090601;28;20452;-76
2024/01/14 09:14:34;;;;;;;19.20;2.50;;;2.90;99.90;;;;;;5081300;28;20775;-76
2024/01/14 09:16:59;;;;;;;17.97;2.60;;;2.80;99.90;;;;;;5103281;28;20593;-76
2024/01/14 09:19:25;;;;;;;19.40;2.95;;;2.80;99.90;;;;;;5094121;28;20413;-77
2024/01/14 09:21:51;;;;;;;21.10;2.83;;;2.90;99.90;;;;;;5094952;28;20771;-77
2024/01/14 09:24:17;;;;;;;18.17;3.55;;;2.90;99.90;;;;;;5098522;28;20556;-77
2024/01/14 09:26:42;;;;;;;19.48;2.97;;;3.00;99.90;;;;;;5099496;28;20413;-77
2024/01/14 09:29:08;;;;;;;15.63;2.38;;;3.20;99.90;;;;;;5091156;28;20405;-77
2024/01/14 09:31:34;;;;;;;18.90;2.80;;;3.20;99.90;;;;;;5098460;28;20496;-77
2024/01/14 09:33:59;;;;;;;15.07;2.27;;;3.30;99.90;;;;;;5094105;28;20990;-77
2024/01/14 09:36:27;;;;;;;13.95;2.30;;;3.40;99.90;;;;;;5095010;28;20483;-77
2024/01/14 09:38:53;;;;;;;14.20;2.17;;;3.50;99.90;;;;;;5094106;28;20764;-77
2024/01/14 09:41:31;;;;;;;15.53;2.53;;;3.50;99.90;;;;;;5104568;28;20411;-76
2024/01/14 09:43:57;;;;;;;20.08;2.20;;;3.50;99.90;;;;;;5102617;28;20410;-76
2024/01/14 09:46:24;;;;;;;15.93;2.47;;;3.50;99.90;;;;;;5106008;28;20906;-77
2024/01/14 09:48:54;;;;;;;14.48;2.20;;;3.50;99.90;;;;;;5099070;28;20473;-77
2024/01/14 09:51:26;;;;;;;19.70;2.17;;;3.50;99.90;;;;;;5096278;28;20436;-77
2024/01/14 09:53:53;;;;;;;14.35;2.30;;;3.50;99.90;;;;;;5081894;28;20441;-77
2024/01/14 09:56:19;;;;;;;12.55;1.80;;;3.50;99.90;;;;;;5090287;28;20402;-77
2024/01/14 09:58:46;;;;;;;13.70;1.85;;;3.50;99.90;;;;;;5099431;28;20438;-77
2024/01/14 10:01:20;;;;;;;13.95;2.35;;;3.50;99.90;;;;;;5103718;28;20400;-76
2024/01/14 10:03:46;;;;;;;12.38;1.80;;;3.60;99.90;;;;;;5093518;28;20788;-77
2024/01/14 10:06:13;;;;;;;11.93;1.77;;;3.60;99.90;;;;;;5090021;28;20410;-77
2024/01/14 10:08:38;;;;;;;11.10;1.65;;;3.60;99.90;;;;;;5091936;28;20402;-78
2024/01/14 10:11:05;;;;;;;12.63;1.67;;;3.70;99.90;;;;;;5101765;28;20558;-78
2024/01/14 10:13:33;;;;;;;16.65;2.17;;;3.70;99.90;;;;;;5098201;28;20410;-77
2024/01/14 10:15:59;;;;;;;15.13;1.90;;;3.70;99.90;;;;;;5102312;28;20404;-76
2024/01/14 10:18:25;;;;;;;13.77;2.00;;;3.70;99.90;;;;;;5093283;28;20402;-78
2024/01/14 10:20:51;;;;;;;16.17;2.55;;;3.70;99.90;;;;;;5101636;28;20401;-77
2024/01/14 10:23:18;;;;;;;12.40;1.88;;;3.80;99.90;;;;;;5091477;28;20398;-79
2024/01/14 10:25:44;;;;;;;17.55;2.33;;;3.90;99.90;;;;;;5100066;28;20486;-78
2024/01/14 10:28:10;;;;;;;13.70;2.53;;;4.00;99.90;;;;;;5095721;28;20406;-78
2024/01/14 10:30:36;;;;;;;14.97;2.40;;;4.20;99.90;;;;;;5095658;28;20476;-78
2024/01/14 10:33:03;;;;;;;16.17;1.90;;;4.20;99.90;;;;;;5095767;28;20508;-78
2024/01/14 10:35:29;;;;;;;11.25;1.73;;;4.30;99.90;;;;;;5088981;28;20426;-78
2024/01/14 10:37:55;;;;;;;15.47;2.37;;;4.20;99.90;;;;;;5094283;28;20437;-78
2024/01/14 10:40:22;;;;;;;16.60;2.33;;;4.20;99.90;;;;;;5098103;28;20413;-78
2024/01/14 10:42:47;;;;;;;13.18;2.22;;;4.30;99.90;;;;;;5096330;28;20440;-78
2024/01/14 10:45:13;;;;;;;13.52;1.73;;;4.30;99.90;;;;;;5099796;28;20413;-78
2024/01/14 10:47:45;;;;;;;14.30;1.70;;;4.40;99.90;;;;;;5098304;28;21271;-78
2024/01/14 10:50:12;;;;;;;13.50;1.95;;;4.40;99.90;;;;;;5096865;28;20416;-77
2024/01/14 10:52:42;;;;;;;14.40;2.60;;;4.60;99.90;;;;;;5084808;28;20439;-78
2024/01/14 10:55:34;;;;;;;12.90;1.63;;;4.90;99.90;;;;;;5093414;28;20440;-78
2024/01/14 10:58:03;;;;;;;10.73;1.65;;;5.30;99.90;;;;;;5096676;28;20419;-77
2024/01/14 11:00:34;;;;;;;8.57;1.42;;;5.40;99.90;;;;;;5075933;28;20435;-78
2024/01/14 11:03:05;;;;;;;10.43;1.50;;;5.40;99.90;;;;;;5101195;27;20466;-78
2024/01/14 11:05:33;;;;;;;19.55;1.80;;;5.30;99.80;;;;;;5088292;28;20838;-78
2024/01/14 11:08:00;;;;;;;11.98;2.50;;;5.10;98.60;;;;;;5093209;28;20419;-78
2024/01/14 11:10:27;;;;;;;9.15;1.02;;;5.00;98.70;;;;;;5089571;28;20459;-78
2024/01/14 11:12:56;;;;;;;10.83;1.40;;;4.90;98.80;;;;;;5094028;28;20441;-78
2024/01/14 11:15:28;;;;;;;7.60;1.20;;;4.80;99.10;;;;;;5092055;28;20451;-79
2024/01/14 11:18:18;;;;;;;7.10;1.10;;;4.80;99.30;;;;;;5098502;28;20426;-78
2024/01/14 11:20:47;;;;;;;8.37;1.07;;;4.80;99.30;;;;;;5088339;28;20422;-78
2024/01/14 11:23:13;;;;;;;6.03;1.00;;;4.80;99.50;;;;;;5098465;28;20410;-77
2024/01/14 11:25:44;;;;;;;7.77;1.30;;;5.00;99.90;;;;;;5101679;28;20408;-77
2024/01/14 11:28:11;;;;;;;10.23;1.40;;;5.10;99.90;;;;;;5093436;28;20496;-77
2024/01/14 11:30:50;;;;;;;7.70;1.27;;;5.20;99.80;;;;;;5082744;28;20426;-77
2024/01/14 11:33:31;;;;;;;10.63;1.77;;;5.20;99.10;;;;;;5091900;28;20460;-77
2024/01/14 11:35:58;;;;;;;10.93;1.63;;;5.20;98.60;;;;;;5095384;28;20422;-77
2024/01/14 11:38:52;;;;;;;10.15;1.60;;;5.60;99.90;;;;;;5080841;28;20400;-77
2024/01/14 11:41:35;;;;;;;10.63;1.92;;;6.20;99.90;;;;;;5088059;28;20452;-77
2024/01/14 11:44:09;;;;;;;11.23;1.73;;;6.70;99.30;;;;;;5097760;28;20930;-77
2024/01/14 11:46:48;;;;;;;11.23;1.30;;;6.90;98.00;;;;;;5102025;28;20419;-78
2024/01/14 11:49:18;;;;;;;10.07;1.80;;;7.10;96.90;;;;;;5098234;28;20404;-77
2024/01/14 11:51:59;;;;;;;13.77;1.83;;;7.00;92.80;;;;;;5101801;28;20431;-78
2024/01/14 11:54:25;;;;;;;13.18;1.95;;;6.70;91.30;;;;;;5088072;28;20505;-77
2024/01/14 11:56:53;;;;;;;8.13;1.30;;;6.40;90.00;;;;;;5096548;28;20480;-77
2024/01/14 11:59:19;;;;;;;9.45;1.33;;;6.20;89.90;;;;;;5099792;28;20923;-76
2024/01/14 12:01:44;;;;;;;10.07;1.50;;;6.00;91.30;;;;;;5096408;28;20398;-75
2024/01/14 12:04:10;;;;;;;13.53;1.30;;;6.00;92.30;;;;;;5083072;28;20405;-75
2024/01/14 12:06:49;;;;;;;11.10;1.30;;;6.00;93.60;;;;;;5095929;28;20406;-76
2024/01/14 12:09:17;;;;;;;12.43;1.60;;;6.00;93.30;;;;;;5081423;28;20415;-75
2024/01/14 12:11:42;;;;;;;11.07;1.50;;;6.10;94.20;;;;;;5094867;28;20433;-76
2024/01/14 12:14:09;;;;;;;8.63;1.77;;;6.20;92.00;;;;;;5095241;28;20399;-75
2024/01/14 12:16:38;;;;;;;10.57;1.42;;;6.10;91.60;;;;;;5096296;28;20409;-75
2024/01/14 12:19:18;;;;;;;10.65;1.30;;;6.20;92.80;;;;;;5100680;28;20402;-76
2024/01/14 12:21:43;;;;;;;7.70;1.20;;;6.30;92.90;;;;;;5095293;28;20447;-75
2024/01/14 12:24:11;;;;;;;8.23;1.20;;;6.30;91.90;;;;;;5089703;28;20448;-75
2024/01/14 12:26:36;;;;;;;10.75;0.80;;;6.20;91.60;;;;;;5099682;28;20420;-76
2024/01/14 12:29:02;;;;;;;10.87;1.70;;;6.20;92.00;;;;;;5098995;28;20402;-76
2024/01/14 12:31:32;;;;;;;12.45;1.83;;;6.20;92.80;;;;;;5100022;28;20428;-76
2024/01/14 12:34:03;;;;;;;9.20;1.25;;;6.50;92.50;;;;;;5097220;28;20772;-76
2024/01/14 12:36:29;;;;;;;11.43;1.45;;;6.60;93.10;;;;;;5093289;28;21039;-76
2024/01/14 12:38:55;;;;;;;9.13;1.00;;;6.70;92.70;;;;;;5089324;28;20536;-76
2024/01/14 12:41:20;;;;;;;8.55;1.15;;;6.70;90.20;;;;;;5103818;28;20456;-76
2024/01/14 12:43:46;;;;;;;7.77;1.40;;;6.60;88.40;;;;;;5101080;28;20409;-75
2024/01/14 12:46:12;;;;;;;9.80;1.60;;;6.50;86.70;;;;;;5102333;28;20498;-76